Time;durP1;ratioP1;P1;durP2;ratioP2;P2;SDS_P1;SDS_P2;PMS_P1;PMS_P2;Temp;Humidity;BMP_temperature;BMP_pressure;BME280_temperature;BME280_humidity;BME280_pressure;Samples;Min_cycle;Max_cycle;Signal;HPM_P1;HPM_P2
2022/07/06 00:02:00;;;;;;;2.03;1.35;;;20.00;47.30;;;;;;5029898;28;20557;-71
2022/07/06 00:04:25;;;;;;;2.13;1.00;;;20.00;47.30;;;;;;5044282;28;20506;-70
2022/07/06 00:06:51;;;;;;;1.52;1.40;;;19.90;47.40;;;;;;5022283;28;20109;-71
2022/07/06 00:09:16;;;;;;;1.40;1.20;;;19.90;47.50;;;;;;5015084;28;20044;-70
2022/07/06 00:11:42;;;;;;;1.40;1.17;;;19.80;47.50;;;;;;5012604;28;20037;-70
2022/07/06 00:14:07;;;;;;;1.45;1.00;;;19.80;47.70;;;;;;5016681;28;20047;-71
2022/07/06 00:16:33;;;;;;;1.67;1.17;;;19.80;47.70;;;;;;5031602;28;20044;-70
2022/07/06 00:18:58;;;;;;;1.33;1.20;;;19.70;47.80;;;;;;5025151;28;20048;-72
2022/07/06 00:21:24;;;;;;;1.08;0.98;;;19.70;47.90;;;;;;5025288;28;20063;-71
2022/07/06 00:23:51;;;;;;;3.22;1.10;;;19.70;48.10;;;;;;5025289;28;20047;-72
2022/07/06 00:26:17;;;;;;;1.30;1.20;;;19.60;48.10;;;;;;5006389;28;20046;-71
2022/07/06 00:28:43;;;;;;;1.10;1.00;;;19.60;48.30;;;;;;5044987;28;20064;-71
2022/07/06 00:31:08;;;;;;;1.27;1.17;;;19.60;48.40;;;;;;5033281;28;20052;-72
2022/07/06 00:33:34;;;;;;;1.65;1.20;;;19.50;48.40;;;;;;5021567;28;20205;-71
2022/07/06 00:36:00;;;;;;;1.42;1.17;;;19.50;48.50;;;;;;5053855;28;20574;-72
2022/07/06 00:38:25;;;;;;;1.88;1.20;;;19.40;48.60;;;;;;5024158;28;20033;-71
2022/07/06 00:40:51;;;;;;;2.00;1.40;;;19.40;48.60;;;;;;5032360;28;20158;-72
2022/07/06 00:43:16;;;;;;;1.45;1.00;;;19.40;48.70;;;;;;5031581;28;20217;-71
2022/07/06 00:45:43;;;;;;;1.42;1.15;;;19.30;48.80;;;;;;5021919;28;20606;-71
2022/07/06 00:48:09;;;;;;;1.38;1.13;;;19.30;48.90;;;;;;5038418;28;20032;-72
2022/07/06 00:50:34;;;;;;;4.10;1.35;;;19.20;48.90;;;;;;5024706;28;20033;-71
2022/07/06 00:53:01;;;;;;;3.95;1.80;;;19.20;49.00;;;;;;5019216;28;20037;-71
2022/07/06 00:55:34;;;;;;;2.08;1.10;;;19.10;49.00;;;;;;5039614;28;20037;-71
2022/07/06 00:58:03;;;;;;;1.20;1.05;;;19.10;49.10;;;;;;5050776;28;20031;-71
2022/07/06 01:00:28;;;;;;;1.40;1.02;;;19.10;49.30;;;;;;4988313;28;20045;-72
2022/07/06 01:02:54;;;;;;;1.10;1.10;;;19.00;49.30;;;;;;5016905;28;20401;-71
2022/07/06 01:05:20;;;;;;;1.55;1.25;;;19.00;49.20;;;;;;5035311;28;20040;-71
2022/07/06 01:07:47;;;;;;;2.28;1.10;;;18.90;49.30;;;;;;5015677;28;20038;-71
2022/07/06 01:10:13;;;;;;;2.05;1.00;;;18.90;49.40;;;;;;5038263;28;20616;-71
2022/07/06 01:12:39;;;;;;;2.45;1.33;;;18.90;49.50;;;;;;5022615;28;20810;-71
2022/07/06 01:15:07;;;;;;;1.27;1.17;;;18.90;49.50;;;;;;5028335;28;20032;-70
2022/07/06 01:17:33;;;;;;;1.80;1.17;;;18.80;49.50;;;;;;4994420;28;20486;-71
2022/07/06 01:20:06;;;;;;;2.95;1.15;;;18.80;49.60;;;;;;5030595;28;20048;-70
2022/07/06 01:22:32;;;;;;;1.23;0.95;;;18.80;49.70;;;;;;5027955;28;20062;-72
2022/07/06 01:24:57;;;;;;;2.03;0.98;;;18.80;49.80;;;;;;5029336;28;20132;-70
2022/07/06 01:27:23;;;;;;;2.08;0.90;;;18.70;49.80;;;;;;5045088;28;20054;-71
2022/07/06 01:29:48;;;;;;;2.85;1.25;;;18.70;49.90;;;;;;5036460;28;20039;-71
2022/07/06 01:32:14;;;;;;;2.85;0.80;;;18.70;49.90;;;;;;5049777;28;20098;-71
2022/07/06 01:34:40;;;;;;;1.48;1.38;;;18.60;50.30;;;;;;5026013;28;20036;-72
2022/07/06 01:37:06;;;;;;;1.02;0.93;;;18.60;50.00;;;;;;5020875;28;20120;-71
2022/07/06 01:39:31;;;;;;;1.48;0.95;;;18.60;50.20;;;;;;5044740;28;20068;-71
2022/07/06 01:41:57;;;;;;;2.50;1.10;;;18.60;50.20;;;;;;5028592;28;20110;-71
2022/07/06 01:44:22;;;;;;;1.83;1.27;;;18.50;50.20;;;;;;5033276;28;20111;-71
2022/07/06 01:46:48;;;;;;;2.22;1.15;;;18.50;50.40;;;;;;5016072;28;20120;-70
2022/07/06 01:49:13;;;;;;;2.60;1.15;;;18.40;50.40;;;;;;5027543;28;20056;-71
2022/07/06 01:51:39;;;;;;;4.72;1.92;;;18.40;50.40;;;;;;5020601;28;20029;-70
2022/07/06 01:54:05;;;;;;;2.22;1.10;;;18.30;50.50;;;;;;5038888;28;20029;-72
2022/07/06 01:56:30;;;;;;;2.03;1.27;;;18.30;50.50;;;;;;5037168;28;20036;-70
2022/07/06 01:58:57;;;;;;;1.63;1.02;;;18.30;50.70;;;;;;5018359;28;20037;-70
2022/07/06 02:01:22;;;;;;;1.20;1.10;;;18.30;50.70;;;;;;5016045;28;20025;-70
2022/07/06 02:03:48;;;;;;;1.27;1.10;;;18.20;50.80;;;;;;5017796;28;20117;-70
2022/07/06 02:06:13;;;;;;;1.33;1.23;;;18.20;50.90;;;;;;5038353;28;20095;-70
2022/07/06 02:08:39;;;;;;;2.53;1.15;;;18.10;50.90;;;;;;5029421;28;20111;-70
2022/07/06 02:11:08;;;;;;;2.17;1.15;;;18.10;51.10;;;;;;5017052;28;20091;-70
2022/07/06 02:13:34;;;;;;;3.40;0.90;;;18.10;51.20;;;;;;5058656;28;20025;-71
2022/07/06 02:15:59;;;;;;;3.13;1.15;;;18.00;51.10;;;;;;5025247;28;20040;-71
2022/07/06 02:18:25;;;;;;;2.10;1.02;;;18.00;51.20;;;;;;5028456;28;20035;-71
2022/07/06 02:20:50;;;;;;;2.83;1.00;;;18.00;51.30;;;;;;5022154;28;20253;-70
2022/07/06 02:23:16;;;;;;;2.15;0.93;;;18.00;52.10;;;;;;5051963;28;20081;-70
2022/07/06 02:25:42;;;;;;;1.77;1.10;;;17.90;51.50;;;;;;5034827;28;20025;-70
2022/07/06 02:28:07;;;;;;;3.13;1.40;;;17.90;51.50;;;;;;5025672;28;20189;-71
2022/07/06 02:30:33;;;;;;;1.77;1.08;;;17.80;51.60;;;;;;5034748;28;20411;-71
2022/07/06 02:32:58;;;;;;;1.00;1.00;;;17.80;51.60;;;;;;5036951;28;20033;-70
2022/07/06 02:35:24;;;;;;;2.75;1.00;;;17.80;51.80;;;;;;5037375;28;20040;-71
2022/07/06 02:37:49;;;;;;;1.20;1.00;;;17.80;51.80;;;;;;5024127;28;20524;-70
2022/07/06 02:40:15;;;;;;;1.38;0.85;;;17.70;51.90;;;;;;5044944;28;20724;-70
2022/07/06 02:42:40;;;;;;;1.55;1.17;;;17.70;52.00;;;;;;5023979;28;20052;-70
2022/07/06 02:45:07;;;;;;;2.05;1.05;;;17.60;52.00;;;;;;5027305;28;20056;-70
2022/07/06 02:47:32;;;;;;;2.83;0.85;;;17.60;52.10;;;;;;5008954;28;20034;-70
2022/07/06 02:49:58;;;;;;;3.70;1.27;;;17.50;52.10;;;;;;5034671;28;20048;-71
2022/07/06 02:52:23;;;;;;;2.28;1.02;;;17.50;52.30;;;;;;5032842;28;20060;-71
2022/07/06 02:54:49;;;;;;;1.00;1.00;;;17.40;52.40;;;;;;4996280;28;20520;-70
2022/07/06 02:57:15;;;;;;;2.53;1.00;;;17.40;52.40;;;;;;5031939;28;21008;-71
2022/07/06 02:59:40;;;;;;;0.93;0.93;;;17.40;52.60;;;;;;5036124;28;20109;-69
2022/07/06 03:02:06;;;;;;;1.25;1.10;;;17.30;52.60;;;;;;5029777;28;20036;-71
2022/07/06 03:04:32;;;;;;;1.23;1.05;;;17.30;52.60;;;;;;5016403;28;20042;-73
2022/07/06 03:06:57;;;;;;;1.92;0.98;;;17.30;52.70;;;;;;5003376;28;20102;-72
2022/07/06 03:09:23;;;;;;;1.85;0.85;;;17.30;52.90;;;;;;5022520;28;20028;-71
2022/07/06 03:11:48;;;;;;;2.30;1.00;;;17.20;53.00;;;;;;5016335;28;20052;-72
2022/07/06 03:14:14;;;;;;;3.65;1.10;;;17.20;53.10;;;;;;5017029;28;20116;-71
2022/07/06 03:16:39;;;;;;;2.25;1.08;;;17.20;53.20;;;;;;5035131;28;20061;-72
2022/07/06 03:19:05;;;;;;;1.27;1.13;;;17.10;53.20;;;;;;5044516;28;20147;-71
2022/07/06 03:21:30;;;;;;;2.15;1.10;;;17.10;53.20;;;;;;5019814;28;20055;-72
2022/07/06 03:23:56;;;;;;;1.30;1.20;;;17.10;53.40;;;;;;5000635;28;20048;-71
2022/07/06 03:26:22;;;;;;;1.67;1.33;;;17.10;54.10;;;;;;5033309;28;20048;-72
2022/07/06 03:28:47;;;;;;;1.38;1.27;;;17.00;53.60;;;;;;5037984;28;20122;-71
2022/07/06 03:31:13;;;;;;;4.05;1.40;;;17.00;53.60;;;;;;5006575;28;20724;-72
2022/07/06 03:33:38;;;;;;;1.40;1.17;;;17.00;53.70;;;;;;5011249;28;20052;-73
2022/07/06 03:36:04;;;;;;;2.35;1.20;;;17.00;53.80;;;;;;5022181;28;20138;-74
2022/07/06 03:38:30;;;;;;;1.45;1.23;;;16.90;53.90;;;;;;5035792;28;20037;-74
2022/07/06 03:40:56;;;;;;;2.85;1.20;;;16.90;54.00;;;;;;5011486;28;21112;-71
2022/07/06 03:43:21;;;;;;;1.33;1.10;;;16.90;54.00;;;;;;5040426;28;20097;-71
2022/07/06 03:45:47;;;;;;;1.48;1.23;;;16.90;54.10;;;;;;5032835;28;21304;-71
2022/07/06 03:48:12;;;;;;;1.88;0.93;;;16.90;54.20;;;;;;5028541;28;20541;-71
2022/07/06 03:50:38;;;;;;;1.67;1.10;;;16.80;54.30;;;;;;5001284;28;20639;-70
2022/07/06 03:53:03;;;;;;;2.70;1.08;;;16.80;54.40;;;;;;5025832;28;20040;-71
2022/07/06 03:55:29;;;;;;;1.50;1.00;;;16.80;54.40;;;;;;4995316;28;20021;-72
2022/07/06 03:57:55;;;;;;;1.05;1.00;;;16.80;54.50;;;;;;5032096;28;20164;-71
2022/07/06 04:00:20;;;;;;;1.70;1.15;;;16.70;54.50;;;;;;5027563;28;20045;-71
2022/07/06 04:02:46;;;;;;;3.03;1.08;;;16.80;54.60;;;;;;5029086;28;20068;-71
2022/07/06 04:05:11;;;;;;;3.13;1.08;;;16.70;54.60;;;;;;4988234;28;20044;-71
2022/07/06 04:07:37;;;;;;;3.22;1.15;;;16.70;54.60;;;;;;5011328;28;20726;-71
2022/07/06 04:10:03;;;;;;;1.30;1.20;;;16.70;54.90;;;;;;4987733;28;20126;-71
2022/07/06 04:12:28;;;;;;;1.25;1.08;;;16.70;54.90;;;;;;5006279;28;20042;-71
2022/07/06 04:14:57;;;;;;;2.28;1.10;;;16.70;55.00;;;;;;5012563;28;20033;-71
2022/07/06 04:18:05;;;;;;;3.05;1.10;;;16.70;55.20;;;;;;5027843;28;20119;-71
2022/07/06 04:20:12;;;;;;;1.45;1.10;;;16.60;55.20;;;;;;4992791;28;20086;-73
2022/07/06 04:22:38;;;;;;;1.50;1.10;;;16.60;55.30;;;;;;5018100;28;20037;-72
2022/07/06 04:25:04;;;;;;;3.38;1.35;;;16.60;55.40;;;;;;5008005;28;20049;-71
2022/07/06 04:27:30;;;;;;;1.60;1.30;;;16.60;55.70;;;;;;5023467;28;20037;-71
2022/07/06 04:29:55;;;;;;;3.55;1.20;;;16.60;55.70;;;;;;5002301;28;20130;-70
2022/07/06 04:32:21;;;;;;;3.17;1.30;;;16.60;55.90;;;;;;4996635;28;20037;-72
2022/07/06 04:34:46;;;;;;;1.77;1.23;;;16.60;56.00;;;;;;5010824;28;20021;-73
2022/07/06 04:37:12;;;;;;;1.60;1.05;;;16.60;56.20;;;;;;5028453;28;20043;-71
2022/07/06 04:39:37;;;;;;;3.60;1.05;;;16.60;56.20;;;;;;4995846;28;20056;-72
2022/07/06 04:42:03;;;;;;;3.67;1.10;;;16.60;56.20;;;;;;5003283;28;20120;-71
2022/07/06 04:44:29;;;;;;;1.50;1.40;;;16.60;56.40;;;;;;5021858;28;20040;-70
2022/07/06 04:46:54;;;;;;;1.63;1.40;;;16.60;56.60;;;;;;4997862;28;20033;-71
2022/07/06 04:49:20;;;;;;;1.70;1.20;;;16.60;56.90;;;;;;4997478;28;20044;-71
2022/07/06 04:51:45;;;;;;;1.55;1.13;;;16.60;56.60;;;;;;5015418;28;20036;-72
2022/07/06 04:54:11;;;;;;;1.48;1.05;;;16.70;56.70;;;;;;5015636;28;20123;-71
2022/07/06 04:56:37;;;;;;;2.40;1.40;;;16.70;56.80;;;;;;4986144;28;20032;-71
2022/07/06 04:59:02;;;;;;;3.47;1.35;;;16.70;56.90;;;;;;5023009;28;20401;-71
2022/07/06 05:01:28;;;;;;;3.85;1.20;;;16.70;57.10;;;;;;5013389;28;20091;-71
2022/07/06 05:03:53;;;;;;;3.95;1.35;;;16.70;57.10;;;;;;5022028;28;20408;-71
2022/07/06 05:06:19;;;;;;;3.45;1.30;;;16.70;57.10;;;;;;5032527;28;20063;-71
2022/07/06 05:08:45;;;;;;;2.67;1.13;;;16.80;57.10;;;;;;5029537;28;20039;-70
2022/07/06 05:11:11;;;;;;;2.78;1.33;;;16.80;57.20;;;;;;5010788;28;20025;-72
2022/07/06 05:13:36;;;;;;;4.90;1.38;;;16.80;57.20;;;;;;5004742;28;20472;-71
2022/07/06 05:16:02;;;;;;;4.07;1.50;;;16.90;57.30;;;;;;5034302;28;20052;-71
2022/07/06 05:18:27;;;;;;;3.85;1.58;;;16.90;57.40;;;;;;5024028;28;20079;-71
2022/07/06 05:20:53;;;;;;;1.85;1.40;;;16.90;57.40;;;;;;5029378;28;20101;-71
2022/07/06 05:23:18;;;;;;;4.07;1.55;;;16.90;57.50;;;;;;5034591;28;20032;-72
2022/07/06 05:25:44;;;;;;;9.18;2.65;;;17.00;57.50;;;;;;5049546;28;20026;-73
2022/07/06 05:28:09;;;;;;;2.35;1.10;;;17.00;57.50;;;;;;5047544;28;20067;-73
2022/07/06 05:30:35;;;;;;;2.20;1.10;;;17.10;57.60;;;;;;5003373;28;21571;-72
2022/07/06 05:33:01;;;;;;;5.57;1.38;;;17.10;57.40;;;;;;5006469;28;20033;-71
2022/07/06 05:35:26;;;;;;;2.47;1.08;;;17.20;57.50;;;;;;5048648;28;20040;-71
2022/07/06 05:37:52;;;;;;;1.38;1.00;;;17.30;57.50;;;;;;5013744;28;20040;-72
2022/07/06 05:40:17;;;;;;;3.42;1.40;;;17.30;57.40;;;;;;5036231;28;20037;-71
2022/07/06 05:42:43;;;;;;;2.95;1.13;;;17.40;57.30;;;;;;5046175;28;20037;-71
2022/07/06 05:45:08;;;;;;;5.05;1.63;;;17.40;57.20;;;;;;5031985;28;20037;-73
2022/07/06 05:50:18;;;;;;;5.10;1.27;;;17.50;57.20;;;;;;5042171;28;20043;-71
2022/07/06 05:52:45;;;;;;;6.78;1.50;;;17.60;57.20;;;;;;5034571;28;20041;-73
2022/07/06 05:55:11;;;;;;;5.18;1.23;;;17.70;57.20;;;;;;5021870;28;20040;-71
2022/07/06 05:57:37;;;;;;;6.68;1.13;;;17.70;57.10;;;;;;5022710;28;20044;-71
2022/07/06 06:00:06;;;;;;;3.55;1.08;;;17.80;57.10;;;;;;5022482;28;20048;-71
2022/07/06 06:02:39;;;;;;;3.50;1.20;;;17.80;57.00;;;;;;5023815;28;20033;-72
2022/07/06 06:05:06;;;;;;;2.85;1.17;;;17.90;57.10;;;;;;5053450;28;20477;-72
2022/07/06 06:07:34;;;;;;;4.82;1.10;;;17.90;56.90;;;;;;5024679;28;20055;-71
2022/07/06 06:09:59;;;;;;;6.30;1.98;;;18.00;56.70;;;;;;5020034;28;20037;-71
2022/07/06 06:12:25;;;;;;;4.55;1.23;;;18.00;56.60;;;;;;5022773;28;20097;-72
2022/07/06 06:14:51;;;;;;;3.42;1.10;;;18.00;57.20;;;;;;5030855;28;20440;-72
2022/07/06 06:17:16;;;;;;;9.65;1.25;;;18.10;56.60;;;;;;5031863;28;20126;-71
2022/07/06 06:19:42;;;;;;;4.07;1.15;;;18.10;56.60;;;;;;5035377;28;20100;-71
2022/07/06 06:22:07;;;;;;;5.18;1.48;;;18.20;56.60;;;;;;5019923;28;20397;-71
2022/07/06 06:24:33;;;;;;;3.60;1.25;;;18.20;56.50;;;;;;5022772;28;20515;-71
2022/07/06 06:26:59;;;;;;;10.07;1.27;;;18.30;56.50;;;;;;5008262;28;20799;-72
2022/07/06 06:29:24;;;;;;;5.55;1.45;;;18.50;56.50;;;;;;5015298;28;20033;-72
2022/07/06 06:31:52;;;;;;;4.07;1.05;;;18.60;56.30;;;;;;5036940;28;20032;-72
2022/07/06 06:34:18;;;;;;;3.33;0.93;;;18.70;56.20;;;;;;5018711;28;20040;-72
2022/07/06 06:36:43;;;;;;;3.33;1.33;;;18.70;56.10;;;;;;5032596;28;20040;-72
2022/07/06 06:39:09;;;;;;;4.68;2.25;;;18.80;56.00;;;;;;5034052;28;20031;-73
2022/07/06 06:41:34;;;;;;;3.15;1.13;;;18.90;55.80;;;;;;5019787;28;20033;-72
2022/07/06 06:44:00;;;;;;;4.57;1.23;;;19.10;55.80;;;;;;5022542;28;20377;-73
2022/07/06 06:46:25;;;;;;;2.60;0.90;;;19.20;55.60;;;;;;5048726;28;20521;-73
2022/07/06 06:48:51;;;;;;;5.28;1.02;;;19.30;55.40;;;;;;5026280;28;20087;-73
2022/07/06 06:51:18;;;;;;;2.55;1.00;;;19.50;55.40;;;;;;5049955;28;20052;-72
2022/07/06 06:53:43;;;;;;;2.28;0.90;;;19.60;55.20;;;;;;5035980;28;20072;-72
2022/07/06 06:56:09;;;;;;;4.72;1.00;;;19.80;55.00;;;;;;5044774;28;20057;-73
2022/07/06 06:58:34;;;;;;;4.43;1.00;;;19.90;54.70;;;;;;5040905;28;20029;-73
2022/07/06 07:01:00;;;;;;;5.93;1.30;;;20.00;54.60;;;;;;5017050;28;20028;-73
2022/07/06 07:03:25;;;;;;;2.78;1.83;;;20.20;54.40;;;;;;5038467;28;20386;-72
2022/07/06 07:05:51;;;;;;;2.53;0.90;;;20.30;54.20;;;;;;5046824;28;20496;-72
2022/07/06 07:08:16;;;;;;;2.22;1.00;;;20.40;54.00;;;;;;5052218;28;20520;-73
2022/07/06 07:10:42;;;;;;;3.10;0.98;;;20.50;53.80;;;;;;5020536;28;20090;-74
2022/07/06 07:13:07;;;;;;;3.03;1.05;;;20.70;53.60;;;;;;5030374;28;20686;-73
2022/07/06 07:15:33;;;;;;;2.67;1.13;;;20.80;53.40;;;;;;5060450;28;20063;-72
2022/07/06 07:17:58;;;;;;;5.80;1.50;;;21.00;53.20;;;;;;5046042;28;20709;-73
2022/07/06 07:20:25;;;;;;;5.80;1.23;;;21.00;52.90;;;;;;5057340;28;20433;-73
2022/07/06 07:22:50;;;;;;;3.00;1.05;;;21.10;52.70;;;;;;5032145;28;20033;-74
2022/07/06 07:25:16;;;;;;;2.10;1.08;;;21.30;52.60;;;;;;5036773;28;20036;-72
2022/07/06 07:27:41;;;;;;;3.75;1.70;;;21.40;52.40;;;;;;5028333;28;20127;-72
2022/07/06 07:30:07;;;;;;;1.63;0.90;;;21.50;52.10;;;;;;5005854;28;20096;-73
2022/07/06 07:32:33;;;;;;;3.35;0.80;;;21.60;51.90;;;;;;5041916;28;20087;-73
2022/07/06 07:34:59;;;;;;;2.35;1.20;;;21.80;51.80;;;;;;5033946;28;20049;-73
2022/07/06 07:37:24;;;;;;;3.53;1.00;;;21.90;51.50;;;;;;5023281;28;20033;-73
2022/07/06 07:39:50;;;;;;;3.17;1.05;;;22.00;51.30;;;;;;5037790;28;20040;-72
2022/07/06 07:42:15;;;;;;;2.70;1.10;;;22.10;51.10;;;;;;5041913;28;20674;-73
2022/07/06 07:44:41;;;;;;;3.83;1.05;;;22.30;50.90;;;;;;5006385;28;20106;-73
2022/07/06 07:47:06;;;;;;;5.57;0.90;;;22.40;50.70;;;;;;5037229;28;20111;-73
2022/07/06 07:49:32;;;;;;;3.67;1.02;;;22.50;50.40;;;;;;5032014;28;20076;-73
2022/07/06 07:51:58;;;;;;;1.67;0.98;;;22.60;50.00;;;;;;5037193;28;20036;-73
2022/07/06 07:54:23;;;;;;;3.17;0.93;;;22.70;49.70;;;;;;5024034;28;20036;-73
2022/07/06 07:56:49;;;;;;;1.70;0.98;;;22.90;49.60;;;;;;5025223;28;20039;-73
2022/07/06 07:59:14;;;;;;;3.33;1.00;;;23.00;49.30;;;;;;5021788;28;20120;-73
2022/07/06 08:01:40;;;;;;;2.30;1.27;;;23.20;49.20;;;;;;5037385;28;20021;-73
2022/07/06 08:04:05;;;;;;;2.95;1.05;;;23.40;48.90;;;;;;5031164;28;20035;-73
2022/07/06 08:06:31;;;;;;;1.83;0.98;;;23.60;48.60;;;;;;5041023;28;20032;-73
2022/07/06 08:08:56;;;;;;;2.60;1.20;;;23.70;48.20;;;;;;5037857;28;20283;-74
2022/07/06 08:11:22;;;;;;;5.45;1.05;;;23.80;47.90;;;;;;5039648;28;20039;-73
2022/07/06 08:13:48;;;;;;;3.92;0.93;;;23.90;47.60;;;;;;5043483;28;20051;-72
2022/07/06 08:16:13;;;;;;;4.03;1.20;;;24.10;47.40;;;;;;5016181;28;20027;-73
2022/07/06 08:18:39;;;;;;;4.20;1.10;;;24.20;47.10;;;;;;5034304;28;20032;-72
2022/07/06 08:21:05;;;;;;;6.35;1.13;;;24.30;46.90;;;;;;5027268;28;20044;-73
2022/07/06 08:23:30;;;;;;;0.70;0.70;;;24.40;46.70;;;;;;5016908;28;20037;-73
2022/07/06 08:25:56;;;;;;;4.10;1.20;;;24.40;46.50;;;;;;5042246;28;20025;-73
2022/07/06 08:28:21;;;;;;;2.85;1.20;;;24.50;46.40;;;;;;5043777;28;20032;-73
2022/07/06 08:30:47;;;;;;;3.78;0.77;;;24.60;46.20;;;;;;5029688;28;20449;-74
2022/07/06 08:33:13;;;;;;;5.60;1.30;;;24.70;46.00;;;;;;4993790;28;20035;-73
2022/07/06 08:35:39;;;;;;;5.03;1.40;;;24.90;45.90;;;;;;5025061;28;20029;-73
2022/07/06 08:38:04;;;;;;;3.40;1.27;;;25.00;45.50;;;;;;5039282;28;20040;-73
2022/07/06 08:40:33;;;;;;;1.75;0.85;;;25.10;45.40;;;;;;5053295;28;20103;-73
2022/07/06 08:42:59;;;;;;;4.30;0.93;;;25.10;45.10;;;;;;5052152;28;20473;-73
2022/07/06 08:45:25;;;;;;;2.78;1.17;;;25.20;45.10;;;;;;5037074;28;20072;-74
2022/07/06 08:47:50;;;;;;;4.45;0.95;;;25.20;44.80;;;;;;5041592;28;20033;-73
2022/07/06 08:50:16;;;;;;;4.63;1.23;;;25.20;44.70;;;;;;5039135;28;20102;-73
2022/07/06 08:52:41;;;;;;;1.65;0.70;;;25.20;44.60;;;;;;5001469;28;20033;-72
2022/07/06 08:55:08;;;;;;;2.03;0.90;;;25.30;44.60;;;;;;5027252;28;20044;-73
2022/07/06 08:57:34;;;;;;;4.32;1.42;;;25.50;44.40;;;;;;5026871;28;20037;-73
2022/07/06 08:59:59;;;;;;;4.70;1.27;;;25.60;44.10;;;;;;4994286;28;20383;-73
2022/07/06 09:02:28;;;;;;;4.45;1.45;;;25.80;44.00;;;;;;5017367;28;20316;-73
2022/07/06 09:04:55;;;;;;;18.45;2.47;;;26.00;43.90;;;;;;5035518;28;20801;-72
2022/07/06 09:07:21;;;;;;;6.65;1.23;;;26.00;43.40;;;;;;5038885;28;20053;-73
2022/07/06 09:09:46;;;;;;;3.40;0.95;;;26.00;43.30;;;;;;5040709;28;20040;-73
2022/07/06 09:12:15;;;;;;;3.28;1.30;;;26.00;43.20;;;;;;5007956;28;20083;-73
2022/07/06 09:14:40;;;;;;;2.90;1.20;;;26.00;43.00;;;;;;5035928;28;20120;-73
2022/07/06 09:17:07;;;;;;;3.42;1.00;;;26.10;42.90;;;;;;5060035;28;20600;-72
2022/07/06 09:19:33;;;;;;;3.42;0.77;;;26.20;42.80;;;;;;5039168;28;20460;-72
2022/07/06 09:22:02;;;;;;;3.13;0.82;;;26.20;42.60;;;;;;5011176;28;20056;-72
2022/07/06 09:24:28;;;;;;;3.67;0.93;;;26.30;42.50;;;;;;5056979;28;20025;-73
2022/07/06 09:26:57;;;;;;;3.97;1.10;;;26.40;42.50;;;;;;5038232;28;20048;-72
2022/07/06 09:29:32;;;;;;;5.63;1.00;;;26.40;42.20;;;;;;4996191;28;20032;-72
2022/07/06 09:32:02;;;;;;;8.13;1.15;;;26.40;41.80;;;;;;5027370;28;20032;-72
2022/07/06 09:34:41;;;;;;;3.65;0.90;;;26.50;41.80;;;;;;5042722;28;20020;-72
2022/07/06 09:37:07;;;;;;;7.38;1.00;;;26.50;41.40;;;;;;5008838;28;20055;-73
2022/07/06 09:39:33;;;;;;;2.83;0.90;;;26.50;41.60;;;;;;5029060;28;20068;-72
2022/07/06 09:42:00;;;;;;;5.63;0.80;;;26.50;41.40;;;;;;5032705;28;20048;-72
2022/07/06 09:44:26;;;;;;;2.63;1.45;;;26.60;41.40;;;;;;5049120;28;20036;-72
2022/07/06 09:46:52;;;;;;;1.90;0.95;;;26.80;41.30;;;;;;5040472;28;20131;-73
2022/07/06 09:49:21;;;;;;;1.10;0.70;;;26.90;41.10;;;;;;5030084;28;20105;-72
2022/07/06 09:51:48;;;;;;;3.65;1.13;;;27.10;40.70;;;;;;5033160;28;20025;-73
2022/07/06 09:54:13;;;;;;;1.23;0.90;;;27.30;40.20;;;;;;5029467;28;20035;-73
2022/07/06 09:56:40;;;;;;;1.58;0.90;;;27.40;39.80;;;;;;5037672;28;20108;-73
2022/07/06 09:59:11;;;;;;;2.17;0.90;;;27.30;39.40;;;;;;5022824;28;20037;-73
2022/07/06 10:01:37;;;;;;;;;;;27.30;39.20;;;;;;5010715;28;20029;-73
2022/07/06 10:04:03;;;;;;;1.30;1.20;;;27.50;39.30;;;;;;5038833;28;19909;-73
2022/07/06 10:06:29;;;;;;;3.53;0.90;;;27.70;39.20;;;;;;5043537;28;20037;-73
2022/07/06 10:08:55;;;;;;;2.50;1.00;;;27.90;38.80;;;;;;5043403;28;20036;-73
2022/07/06 10:11:21;;;;;;;1.15;0.80;;;28.10;38.40;;;;;;5036592;28;20041;-74
2022/07/06 10:13:46;;;;;;;1.65;0.80;;;28.20;38.10;;;;;;5030962;28;20107;-73
2022/07/06 10:16:12;;;;;;;4.60;1.27;;;28.30;37.80;;;;;;5017357;28;20542;-75
2022/07/06 10:18:37;;;;;;;1.95;0.85;;;28.40;37.50;;;;;;5028040;28;20498;-73
2022/07/06 10:21:03;;;;;;;3.05;1.10;;;28.50;37.30;;;;;;5023273;28;20052;-74
2022/07/06 10:23:29;;;;;;;1.90;0.80;;;28.70;37.20;;;;;;5016124;28;20041;-73
2022/07/06 10:25:56;;;;;;;3.20;1.10;;;28.90;36.80;;;;;;5033112;28;20099;-74
2022/07/06 10:28:21;;;;;;;4.32;0.80;;;29.00;36.70;;;;;;5010999;28;20035;-74
2022/07/06 10:30:47;;;;;;;4.10;1.13;;;29.10;36.40;;;;;;5028074;28;20025;-74
2022/07/06 10:33:14;;;;;;;1.40;1.00;;;29.20;36.20;;;;;;5046878;28;20029;-73
2022/07/06 10:35:40;;;;;;;4.72;0.90;;;29.20;36.00;;;;;;5034584;28;20028;-74
2022/07/06 10:38:06;;;;;;;2.25;1.00;;;29.30;35.80;;;;;;5029919;28;20142;-74
2022/07/06 10:43:17;;;;;;;2.47;0.90;;;29.40;35.40;;;;;;5031536;28;20078;-75
2022/07/06 10:45:46;;;;;;;5.82;1.08;;;29.50;35.00;;;;;;5028759;28;20041;-73
2022/07/06 10:48:11;;;;;;;4.38;1.20;;;29.60;34.70;;;;;;5035918;28;20108;-73
2022/07/06 10:50:41;;;;;;;2.85;1.00;;;29.70;34.60;;;;;;5026285;28;20059;-73
2022/07/06 10:53:13;;;;;;;3.10;1.00;;;29.80;34.20;;;;;;5011603;28;20532;-74
2022/07/06 10:55:40;;;;;;;3.83;0.80;;;29.90;33.80;;;;;;5015916;28;20064;-73
2022/07/06 10:58:06;;;;;;;2.17;0.80;;;30.10;34.00;;;;;;5011351;28;20041;-74
2022/07/06 11:00:53;;;;;;;1.52;0.85;;;30.10;33.80;;;;;;5034589;28;20048;-73
2022/07/06 11:03:38;;;;;;;6.90;0.95;;;30.20;33.30;;;;;;5003201;28;20029;-73
2022/07/06 11:06:12;;;;;;;1.35;0.70;;;30.30;33.20;;;;;;5033125;28;20037;-74
2022/07/06 11:08:49;;;;;;;3.97;0.88;;;30.30;33.50;;;;;;4993644;28;20091;-73
2022/07/06 11:11:20;;;;;;;7.50;1.05;;;30.30;33.20;;;;;;5034040;28;20449;-74
2022/07/06 11:13:49;;;;;;;;;;;30.30;33.20;;;;;;5023298;28;20077;-74
2022/07/06 11:16:16;;;;;;;18.73;2.22;;;30.30;33.30;;;;;;5008407;28;20063;-73
2022/07/06 11:18:45;;;;;;;28.60;2.95;;;30.40;33.50;;;;;;4999884;28;20474;-73
2022/07/06 11:21:23;;;;;;;34.55;4.00;;;30.50;33.30;;;;;;5020065;28;20172;-72
2022/07/06 11:23:49;;;;;;;68.88;6.22;;;30.60;32.90;;;;;;5002916;28;20406;-73
2022/07/06 11:26:15;;;;;;;18.85;1.80;;;30.60;32.70;;;;;;5025760;28;20088;-73
2022/07/06 11:28:41;;;;;;;23.83;1.90;;;30.50;32.60;;;;;;5020694;28;20124;-74
2022/07/06 11:31:06;;;;;;;14.52;1.70;;;30.50;32.50;;;;;;4991282;28;20026;-72
2022/07/06 11:33:32;;;;;;;5.85;1.25;;;30.60;32.40;;;;;;5014108;28;20429;-74
2022/07/06 11:36:17;;;;;;;6.88;1.00;;;30.50;32.10;;;;;;4993542;28;20076;-74
2022/07/06 11:38:43;;;;;;;4.68;1.27;;;30.50;31.50;;;;;;5005112;28;20033;-75
2022/07/06 11:41:08;;;;;;;5.57;1.27;;;30.60;32.10;;;;;;5019796;28;20044;-72
2022/07/06 11:43:34;;;;;;;4.38;0.85;;;30.80;32.00;;;;;;4994009;28;20070;-74
2022/07/06 11:46:00;;;;;;;11.52;1.20;;;31.00;31.80;;;;;;5031614;28;20533;-74
2022/07/06 11:48:25;;;;;;;11.20;1.42;;;31.10;31.60;;;;;;5029743;28;20049;-73
2022/07/06 11:51:00;;;;;;;13.82;1.77;;;31.20;31.40;;;;;;5045707;28;20025;-73
2022/07/06 11:53:26;;;;;;;2.45;0.77;;;31.40;31.10;;;;;;5024714;28;20040;-74
2022/07/06 11:55:52;;;;;;;6.00;1.35;;;31.50;31.00;;;;;;5056759;28;20029;-73
2022/07/06 11:58:22;;;;;;;2.33;0.85;;;31.70;30.80;;;;;;5003992;28;20029;-73
2022/07/06 12:01:10;;;;;;;2.37;0.90;;;31.70;30.30;;;;;;5039319;28;20486;-74
2022/07/06 12:03:36;;;;;;;1.85;0.98;;;31.90;29.90;;;;;;5020847;28;20813;-73
2022/07/06 12:06:06;;;;;;;1.52;0.80;;;31.90;30.20;;;;;;5002944;28;20133;-73
2022/07/06 12:08:33;;;;;;;4.82;1.00;;;32.00;29.90;;;;;;5001726;28;20081;-74
2022/07/06 12:10:59;;;;;;;1.77;0.68;;;32.10;29.80;;;;;;5025307;28;20042;-74
2022/07/06 12:13:25;;;;;;;1.63;0.80;;;32.20;29.70;;;;;;5014651;28;20517;-74
2022/07/06 12:15:50;;;;;;;2.85;0.80;;;32.30;29.70;;;;;;5038505;28;20074;-73
2022/07/06 12:18:16;;;;;;;2.20;0.73;;;32.40;29.60;;;;;;5053657;28;20040;-73
2022/07/06 12:20:42;;;;;;;3.95;0.90;;;32.60;29.40;;;;;;5045699;28;20512;-74
2022/07/06 12:23:08;;;;;;;4.38;0.80;;;32.70;29.30;;;;;;5037068;28;20056;-74
2022/07/06 12:25:34;;;;;;;4.72;1.05;;;32.80;29.30;;;;;;5029379;28;20043;-74
2022/07/06 12:28:00;;;;;;;3.80;1.20;;;32.90;29.20;;;;;;5020870;28;20108;-74
2022/07/06 12:30:25;;;;;;;3.40;0.70;;;33.10;29.20;;;;;;5038651;28;20052;-74
2022/07/06 12:33:14;;;;;;;5.00;1.08;;;33.30;29.00;;;;;;5020763;28;20043;-75
2022/07/06 12:35:40;;;;;;;7.47;1.38;;;33.40;28.00;;;;;;5028781;28;20087;-73
2022/07/06 12:38:05;;;;;;;7.15;1.10;;;33.50;28.60;;;;;;5029547;28;20033;-73
2022/07/06 12:40:31;;;;;;;3.88;1.10;;;33.60;28.40;;;;;;5036443;28;20036;-73
2022/07/06 12:42:56;;;;;;;3.60;1.00;;;33.70;28.30;;;;;;5029327;28;20481;-73
2022/07/06 12:45:28;;;;;;;7.68;1.33;;;33.70;28.20;;;;;;5008842;28;20043;-74
2022/07/06 12:48:01;;;;;;;3.10;1.33;;;33.70;27.90;;;;;;5011832;28;20040;-73
2022/07/06 12:50:38;;;;;;;2.08;0.90;;;33.70;28.00;;;;;;5022525;28;20025;-73